Pagrindinis puslapis
METAR-TAF:

METAR-TAF

Oro uostai :

San Antonio International Airport

San Antonijas, Teksasas, Jungtinės Amerikos Valstijos

platuma: 29-31-58N, ilguma: 098-27-49W, Aukštis: 246 m

Dabartinis oras

Ataskaita buvo paskelbta 55 minutes, ne 10:51 UTC
Vėjas 4 kt iš Šiaurės Vakarų
Temperatūra 20°C
Drėgmė 88%
Slėgis 1018 hPa
Matomumas: 16.1 km
Išsisklaidę debesys ne aukštis 25000 ft

METAR: KSAT 291051Z COR 31004KT 10SM SCT250 20/18 A3006 RMK AO2 SLP165 T02000183 $

Laikas: 06:46 (11:46 UTC)

Prognozė

Ataskaita buvo paskelbta 11 minutes, ne 11:35 UTC
Prognozė galioja nuo 29 metu 12 UTC su 30 metu 18 UTC
Vėjas 4 kt iš Šiaurės Vakarų
Matomumas: 10 km
Su prošvaistėmis ne aukštis 20000 ft
Nuo 29 metu 1500 UTC
Vėjas 7 kt iš Šiaurės
Matomumas: 10 km
Mažai debesys ne aukštis 4000 ft
Su prošvaistėmis ne aukštis 20000 ft
Nuo 29 metu 2000 UTC
Vėjas 11 kt iš Šiaurės/Šiaurės Rytų
Matomumas: 10 km
Išsisklaidę debesys ne aukštis 25000 ft

TAF: KSAT 291135Z 2912/3018 32004KT P6SM BKN200 FM291500 36007KT P6SM FEW040 BKN200 FM292000 02011KT P6SM SCT250

Orai ataskaitas ir orų prognozės (METAR, TAF).

turimą stotys yra geltonos ir raudonos taškus žemėlapyje.

Perkelti pele per norėdami pamatyti stoties vardą.

Tada spustelėkite, norėdami matyti oro stebėjimo ir prognozės.

Norėdami pakeisti žemėlapį: spustelėkite ant žalios mygtukų su juodo kryžiaus žemyn,; žalią mygtuką su brūkšneliu, jei norite nutolinti; arba žalių rodyklių gretimoms žemėlapius.


METAR-TAF: